Etusivu
METAR-TAF:

METAR-TAF

Lentoasemat :

Tan Son Nhatin kansainvälinen lentoasema

Hồ Chí Minhin kaupunki, Vietnam

Leveyspiiri: 10-49N, Pituuspiiri: 106-40E, korkeus merenpinnasta: 19 m

Tämänhetkinen sää

Tämä raportti tehtiin 43 minuuttia sitten, kello 08.30 UTC
Tuuli 4 kn lounaasta, vaihdellen kaakon ja lännen välillä
Lämpötila 37°C
Kosteus 37%
Ilmanpaine 1006 hPa
Näkyvyys 10 km tai enemmän
Hajonneita pilviä 2500 ft:n korkeudessa

METAR: VVTS 210830Z 22004KT 130V280 9999 BKN025 37/20 Q1006 NOSIG

Aika: 16:13 (09:13 UTC)

Sääennuste

Tämä raportti tehtiin 4 tuntia ja 13 minuuttia sitten, kello 05.00 UTC
Ennuste voimassa 21. päivästä klo 06 UTC - 22. päivään klo 12 UTC
Tuuli 8 kn etelästä
Näkyvyys 10 km tai enemmän
Hajanaisia pilviä 1700 ft:n korkeudessa

TAF: VVTS 210500Z 2106/2212 17008KT 9999 SCT017

Säähavainnot ja -ennusteet yli 4000 lentoasemalta (METAR- ja TAF-raportit).

Käytössä olevat sääasemat on merkitty karttaan keltaisilla ja punaisilla pisteillä.

Aseta hiiri pisteen päälle nähdäksesi sääaseman nimen.

Klikkaa sitten nähdäksesi säähavainnot ja -ennusteet.

Kartan vaihtaminen: klikkaa mustalla rastilla varustettuja vihreitä pisteitä, niin voit zoomata sisään; viivalla varustettua vihreää pistettä, niin voit zoomata ulos tai vihreitä nuolia, niin pääset viereisille kartoille.


METAR-TAF: